Canefield Airport

Partly cloudy
27oC (81oF)

Partly cloudy


Winds: East north easterly @ 03kts / 06km/h

Humidity: 76%

Barometric Pressure: 1011 mb

Accumulated Rainfall for April: 0.0 mm

Updated: 19:00 local time (23:00 UTC)

Douglas-Charles Airport

Partly cloudy
27oC (81oF)

Partly cloudy


Winds: South easterly @ 03kts / 06km/h

Humidity: 77%

Barometric Pressure: 1012 mb

Accumulated Rainfall for April: 0.5 mm

Updated: 18:00 local time (22:00 UTC)

Satellite Imagery

Satellite Imagery
Click image for larger view. (Source: National Hurricane Center).

Aviation Routine Report (METAR)

Douglas-Charles: METAR TDPD 042200Z 13003KT 9999 SCT022 27/23 Q1012=
Canefield: METAR TDCF 032300Z 06003KT 9999 FEW018 27/22 Q1011=